Time;durP1;ratioP1;P1;durP2;ratioP2;P2;SDS_P1;SDS_P2;PMS_P1;PMS_P2;Temp;Humidity;BMP_temperature;BMP_pressure;BME280_temperature;BME280_humidity;BME280_pressure;Samples;Min_cycle;Max_cycle;Signal;HPM_P1;HPM_P2
2021/01/03 00:02:07;;;;;;;82.85;30.40;;;;;;;2.48;91.62;101511.88;5035390;28;20131;-66
2021/01/03 00:04:34;;;;;;;72.18;26.52;;;;;;;2.45;91.54;101507.63;5051988;28;20052;-66
2021/01/03 00:06:59;;;;;;;71.43;25.75;;;;;;;2.48;91.86;101519.78;5051583;28;20048;-66
2021/01/03 00:09:25;;;;;;;74.50;26.90;;;;;;;2.39;91.53;101518.56;5052046;28;20025;-66
2021/01/03 00:11:51;;;;;;;79.57;27.33;;;;;;;2.44;91.58;101521.78;5052684;28;20029;-66
2021/01/03 00:14:17;;;;;;;67.05;27.50;;;;;;;2.38;91.50;101511.59;5051999;28;20039;-66
2021/01/03 00:16:47;;;;;;;71.18;25.25;;;;;;;2.42;91.20;101518.38;5052573;28;20436;-66
2021/01/03 00:19:13;;;;;;;62.95;25.33;;;;;;;2.34;91.31;101517.97;5051699;28;20041;-66
2021/01/03 00:21:39;;;;;;;65.40;27.98;;;;;;;2.44;91.14;101519.13;5051555;28;20063;-66
2021/01/03 00:24:04;;;;;;;67.47;27.90;;;;;;;2.43;91.11;101506.88;5050185;28;20045;-66
2021/01/03 00:26:30;;;;;;;72.63;27.08;;;;;;;2.43;91.36;101504.25;5051267;28;20055;-66
2021/01/03 00:28:55;;;;;;;58.47;24.97;;;;;;;2.42;91.00;101512.25;5051600;28;20045;-66
2021/01/03 00:31:23;;;;;;;49.07;21.53;;;;;;;2.40;91.13;101525.53;5051592;28;20047;-66
2021/01/03 00:33:49;;;;;;;43.95;19.52;;;;;;;2.41;90.92;101521.97;5034683;28;20484;-66
2021/01/03 00:36:14;;;;;;;46.40;18.88;;;;;;;2.36;90.49;101520.53;5052058;28;20037;-66
2021/01/03 00:38:40;;;;;;;46.13;17.10;;;;;;;2.37;90.35;101528.34;5051327;28;20432;-66
2021/01/03 00:41:05;;;;;;;46.83;20.27;;;;;;;2.39;90.47;101528.22;5034818;28;20377;-66
2021/01/03 00:43:31;;;;;;;30.13;14.73;;;;;;;2.32;90.18;101533.03;5034446;28;20529;-66
2021/01/03 00:45:56;;;;;;;42.07;17.00;;;;;;;2.38;90.20;101540.56;5052061;28;20211;-66
2021/01/03 00:48:21;;;;;;;30.67;12.37;;;;;;;2.29;90.01;101530.56;5051068;28;20033;-66
2021/01/03 00:50:46;;;;;;;32.50;14.63;;;;;;;2.33;89.63;101535.56;5052084;28;20482;-66
2021/01/03 00:53:12;;;;;;;26.93;14.20;;;;;;;2.33;89.61;101543.47;5051966;28;20040;-66
2021/01/03 00:55:37;;;;;;;34.20;14.43;;;;;;;2.33;89.71;101540.00;5050779;28;20033;-66
2021/01/03 00:58:02;;;;;;;34.53;14.17;;;;;;;2.34;89.83;101539.03;5050532;28;20466;-66
2021/01/03 01:00:32;;;;;;;26.10;13.80;;;;;;;2.35;89.76;101537.28;5050869;28;20058;-66
2021/01/03 01:03:00;;;;;;;27.02;12.38;;;;;;;2.25;89.63;101543.09;5051850;28;20055;-66
2021/01/03 01:05:25;;;;;;;30.02;13.30;;;;;;;2.33;89.74;101542.63;5034215;28;20455;-66
2021/01/03 01:07:52;;;;;;;25.00;12.98;;;;;;;2.27;89.52;101545.63;5051508;28;20029;-66
2021/01/03 01:10:21;;;;;;;;;;;;;;;2.29;89.46;101551.66;5052081;28;20032;-66
2021/01/03 01:12:47;;;;;;;30.15;13.25;;;;;;;2.28;89.58;101548.16;5051546;28;19916;-66
2021/01/03 01:15:18;;;;;;;26.15;12.52;;;;;;;2.22;89.28;101550.31;5051643;28;20051;-66
2021/01/03 01:17:50;;;;;;;28.40;12.35;;;;;;;2.20;89.45;101553.06;5051332;28;20366;-66
2021/01/03 01:20:17;;;;;;;28.80;13.80;;;;;;;2.20;89.54;101552.19;5050397;28;20093;-66
2021/01/03 01:22:43;;;;;;;28.02;13.43;;;;;;;2.16;89.42;101551.53;5050496;28;20078;-66
2021/01/03 01:25:09;;;;;;;31.33;13.63;;;;;;;2.23;89.27;101557.28;5050206;28;20033;-66
2021/01/03 01:27:34;;;;;;;27.77;13.57;;;;;;;2.24;89.56;101556.34;5050917;28;20028;-66
2021/01/03 01:30:00;;;;;;;27.07;12.73;;;;;;;2.18;89.22;101560.19;5050217;28;20458;-66
2021/01/03 01:32:25;;;;;;;28.27;14.32;;;;;;;2.23;89.63;101562.56;5050476;28;20087;-66
2021/01/03 01:34:50;;;;;;;32.87;14.27;;;;;;;2.21;89.31;101564.44;5049779;28;20127;-66
2021/01/03 01:37:15;;;;;;;25.90;12.77;;;;;;;2.21;89.12;101567.06;5050145;28;20136;-67
2021/01/03 01:39:41;;;;;;;31.23;14.63;;;;;;;2.17;89.30;101568.19;5051039;28;20037;-66
2021/01/03 01:42:07;;;;;;;28.25;13.25;;;;;;;2.17;89.31;101568.19;5050092;28;20467;-67
2021/01/03 01:44:32;;;;;;;29.53;14.33;;;;;;;2.19;89.44;101567.16;5050436;28;20102;-67
2021/01/03 01:47:29;;;;;;;38.07;14.50;;;;;;;2.17;89.45;101568.19;5050806;28;20137;-66
2021/01/03 01:49:58;;;;;;;30.80;13.68;;;;;;;2.20;89.38;101570.63;5050210;28;20470;-67
2021/01/03 01:52:30;;;;;;;31.63;16.10;;;;;;;2.20;89.46;101573.25;5049999;28;20644;-67
2021/01/03 01:55:01;;;;;;;30.75;14.25;;;;;;;2.17;89.46;101573.44;5050813;28;20090;-67
2021/01/03 01:57:32;;;;;;;29.58;15.25;;;;;;;2.18;89.77;101577.75;5050665;28;20044;-67
2021/01/03 02:00:11;;;;;;;26.45;14.48;;;;;;;2.16;89.70;101571.75;5050822;28;20036;-67
2021/01/03 02:02:47;;;;;;;30.02;14.88;;;;;;;2.20;89.84;101575.88;5049952;28;20120;-67
2021/01/03 02:05:20;;;;;;;34.92;14.65;;;;;;;2.11;90.09;101564.97;5049738;28;20098;-67
2021/01/03 02:07:55;;;;;;;26.60;12.63;;;;;;;2.13;89.83;101571.91;5049794;28;20063;-67
2021/01/03 02:10:34;;;;;;;26.83;12.20;;;;;;;2.10;89.83;101579.06;5050921;28;20037;-67
2021/01/03 02:13:18;;;;;;;29.67;12.95;;;;;;;2.18;89.85;101573.38;5049841;28;20105;-67
2021/01/03 02:15:43;;;;;;;28.95;11.38;;;;;;;2.14;89.68;101568.34;5049630;28;20104;-67
2021/01/03 02:18:11;;;;;;;22.27;11.48;;;;;;;2.07;89.70;101575.75;5050759;28;20037;-67
2021/01/03 02:21:02;;;;;;;23.40;11.00;;;;;;;2.13;89.64;101566.66;5049742;28;20041;-67
2021/01/03 02:23:38;;;;;;;32.15;11.95;;;;;;;2.06;89.60;101571.41;5033071;28;20040;-67
2021/01/03 02:26:04;;;;;;;;;;;;;;;2.05;89.43;101578.47;5050821;28;20037;-67
2021/01/03 02:28:32;;;;;;;;;;;;;;;2.06;89.26;101577.56;5051087;28;20236;-67
2021/01/03 02:30:58;;;;;;;24.02;10.68;;;;;;;2.04;89.35;101574.16;5066389;28;19923;-67
2021/01/03 02:33:34;;;;;;;24.92;11.80;;;;;;;2.05;89.08;101575.00;5049678;28;20068;-67
2021/01/03 02:36:10;;;;;;;26.90;11.25;;;;;;;2.06;89.28;101574.03;5049214;28;20110;-67
2021/01/03 02:38:38;;;;;;;;;;;;;;;2.05;89.70;101567.94;5051003;28;20186;-67
2021/01/03 02:41:04;;;;;;;27.75;12.57;;;;;;;2.05;89.75;101556.56;5049545;28;19916;-67
2021/01/03 02:43:29;;;;;;;25.90;12.23;;;;;;;2.03;89.69;101564.53;5050519;28;20040;-68
2021/01/03 02:45:54;;;;;;;31.33;12.60;;;;;;;2.04;89.80;101565.41;5049478;28;20120;-69
2021/01/03 02:48:22;;;;;;;28.93;11.60;;;;;;;2.03;89.83;101564.53;5035384;28;20025;-67
2021/01/03 02:50:47;;;;;;;21.13;10.90;;;;;;;2.05;89.73;101567.09;5054205;28;20037;-67
2021/01/03 02:53:13;;;;;;;23.80;11.27;;;;;;;2.04;89.29;101554.88;5054383;28;20044;-72
2021/01/03 02:55:39;;;;;;;29.63;11.65;;;;;;;2.07;89.49;101563.44;5053949;28;20291;-72
2021/01/03 02:58:04;;;;;;;26.60;11.23;;;;;;;2.07;89.71;101573.13;5054068;28;20037;-72
2021/01/03 03:00:33;;;;;;;27.27;11.15;;;;;;;2.10;89.65;101565.88;5036414;28;20037;-72
2021/01/03 03:02:59;;;;;;;28.05;12.48;;;;;;;2.11;89.64;101577.28;5053190;28;20048;-72
2021/01/03 03:05:24;;;;;;;;;;;;;;;2.09;89.78;101576.53;5053532;28;20102;-72
2021/01/03 03:07:50;;;;;;;;;;;;;;;2.09;89.83;101584.44;5053093;28;19925;-72
2021/01/03 03:10:17;;;;;;;24.67;11.93;;;;;;;2.07;89.78;101573.97;5052980;28;19995;-73
2021/01/03 03:12:47;;;;;;;23.05;11.23;;;;;;;2.04;89.98;101571.50;5053017;28;20056;-72
2021/01/03 03:15:13;;;;;;;26.10;12.45;;;;;;;2.09;89.83;101573.88;5053094;28;20435;-72
2021/01/03 03:17:39;;;;;;;25.98;10.90;;;;;;;2.08;89.85;101574.81;5053473;28;20112;-72
2021/01/03 03:20:05;;;;;;;22.90;10.93;;;;;;;2.13;90.13;101580.69;5036288;28;20045;-72
2021/01/03 03:22:30;;;;;;;29.13;12.35;;;;;;;2.10;89.90;101578.22;5053625;28;20048;-72
2021/01/03 03:24:55;;;;;;;31.07;12.30;;;;;;;2.09;89.90;101582.63;5052796;28;20410;-72
2021/01/03 03:27:21;;;;;;;24.30;11.97;;;;;;;2.07;89.81;101584.50;5052426;28;20445;-72
2021/01/03 03:29:46;;;;;;;28.03;14.77;;;;;;;2.03;89.90;101582.13;5052798;28;20037;-72
2021/01/03 03:32:11;;;;;;;33.77;14.93;;;;;;;2.01;89.79;101584.84;5052439;28;20052;-72
2021/01/03 03:34:37;;;;;;;28.07;13.57;;;;;;;2.07;89.84;101583.66;5053421;28;20041;-72
2021/01/03 03:37:02;;;;;;;32.30;14.85;;;;;;;2.02;89.99;101589.19;5052966;28;20041;-72
2021/01/03 03:39:28;;;;;;;34.77;14.37;;;;;;;1.97;89.94;101579.88;5052521;28;20090;-72
2021/01/03 03:41:55;;;;;;;32.70;15.53;;;;;;;1.95;90.06;101582.56;5053197;28;20044;-72
2021/01/03 03:44:21;;;;;;;32.78;14.93;;;;;;;1.94;89.97;101578.22;5053324;28;20136;-72
2021/01/03 03:46:51;;;;;;;29.55;13.88;;;;;;;1.94;89.89;101580.00;5052906;28;20112;-72
2021/01/03 03:49:17;;;;;;;26.17;12.82;;;;;;;1.92;89.89;101582.75;5035601;28;20040;-72
2021/01/03 03:51:42;;;;;;;24.65;12.10;;;;;;;1.92;89.74;101580.13;5051147;28;20487;-72
2021/01/03 03:54:08;;;;;;;27.73;11.17;;;;;;;1.94;89.78;101586.13;5050737;28;20040;-72
2021/01/03 03:56:33;;;;;;;21.03;10.37;;;;;;;1.86;89.39;101585.72;5051426;28;20044;-72
2021/01/03 03:58:58;;;;;;;19.67;10.67;;;;;;;1.85;89.24;101589.28;5051251;28;20753;-72
2021/01/03 04:01:24;;;;;;;22.20;10.77;;;;;;;1.81;89.47;101590.41;5050450;28;20520;-72
2021/01/03 04:03:49;;;;;;;19.40;9.50;;;;;;;1.79;89.37;101587.00;5051535;28;20041;-73
2021/01/03 04:06:14;;;;;;;26.07;10.40;;;;;;;1.74;89.20;101591.69;5051895;28;20101;-72
2021/01/03 04:08:40;;;;;;;17.20;9.40;;;;;;;1.76;89.24;101584.53;5068688;28;20181;-72
2021/01/03 04:11:05;;;;;;;16.40;9.30;;;;;;;1.72;89.55;101588.28;5051832;28;20064;-72
2021/01/03 04:13:30;;;;;;;19.53;9.83;;;;;;;1.71;89.30;101581.28;5035329;28;20113;-72
2021/01/03 04:15:56;;;;;;;19.23;9.70;;;;;;;1.68;89.40;101579.69;5052615;28;20037;-72
2021/01/03 04:18:21;;;;;;;26.13;11.47;;;;;;;1.59;89.42;101583.69;5051706;28;20041;-72
2021/01/03 04:20:46;;;;;;;23.07;10.17;;;;;;;1.58;89.62;101589.88;5068609;28;20448;-72
2021/01/03 04:23:12;;;;;;;26.50;10.40;;;;;;;1.60;89.48;101577.47;5052679;28;20131;-72
2021/01/03 04:25:38;;;;;;;18.43;10.57;;;;;;;1.60;89.87;101585.38;5052685;28;20140;-72
2021/01/03 04:28:03;;;;;;;25.00;11.45;;;;;;;1.60;89.53;101580.13;5052653;28;20036;-72
2021/01/03 04:30:29;;;;;;;21.08;9.93;;;;;;;1.56;89.64;101578.56;5052416;28;20051;-72
2021/01/03 04:32:54;;;;;;;20.53;10.07;;;;;;;1.56;89.54;101583.84;5051761;28;20053;-72
2021/01/03 04:35:21;;;;;;;25.40;10.27;;;;;;;1.54;89.71;101588.34;5051494;28;20047;-72
2021/01/03 04:37:50;;;;;;;24.10;11.40;;;;;;;1.51;89.77;101577.13;5052461;28;20037;-72
2021/01/03 04:40:20;;;;;;;23.58;10.85;;;;;;;1.50;89.53;101578.94;5052268;28;20124;-72
2021/01/03 04:42:51;;;;;;;25.58;10.27;;;;;;;1.48;89.52;101586.06;5052335;28;20056;-72
2021/01/03 04:45:27;;;;;;;27.40;12.50;;;;;;;1.47;89.65;101589.59;5052246;28;20110;-72
2021/01/03 04:48:01;;;;;;;21.67;11.77;;;;;;;1.45;89.72;101591.47;5052157;28;20048;-72
2021/01/03 04:50:42;;;;;;;22.75;11.05;;;;;;;1.42;89.82;101595.09;5034631;28;20524;-72
2021/01/03 04:53:16;;;;;;;25.67;12.07;;;;;;;1.45;89.85;101594.09;5052248;28;20076;-72
2021/01/03 04:55:49;;;;;;;20.25;10.57;;;;;;;1.36;89.94;101586.69;5051937;28;20047;-72
2021/01/03 04:58:15;;;;;;;25.98;12.05;;;;;;;1.38;89.97;101596.22;5052032;28;20374;-72
2021/01/03 05:00:49;;;;;;;26.37;13.10;;;;;;;1.41;90.04;101595.22;5051922;28;20032;-72
2021/01/03 05:03:43;;;;;;;26.23;12.57;;;;;;;1.38;89.77;101598.00;5050859;28;20040;-72
2021/01/03 05:06:18;;;;;;;29.50;14.05;;;;;;;1.34;90.23;101604.38;5051699;28;20114;-72
2021/01/03 05:08:51;;;;;;;25.58;12.98;;;;;;;1.33;90.08;101603.50;5051036;28;20366;-72
2021/01/03 05:11:21;;;;;;;29.40;15.73;;;;;;;1.32;90.05;101603.59;5051404;28;20029;-68
2021/01/03 05:14:06;;;;;;;27.17;13.20;;;;;;;1.33;90.08;101608.75;5051796;28;20358;-67
2021/01/03 05:16:31;;;;;;;25.30;12.38;;;;;;;1.33;90.03;101607.91;5050449;28;20132;-67
2021/01/03 05:18:57;;;;;;;26.50;13.23;;;;;;;1.36;89.94;101602.47;5051733;28;20430;-68
2021/01/03 05:21:22;;;;;;;28.37;13.17;;;;;;;1.37;89.93;101606.81;5050548;28;20291;-68
2021/01/03 05:24:02;;;;;;;24.90;12.60;;;;;;;1.33;90.14;101608.75;5051621;28;20064;-67
2021/01/03 05:26:32;;;;;;;26.98;13.90;;;;;;;1.33;89.80;101600.88;5050065;28;20044;-67
2021/01/03 05:28:58;;;;;;;25.80;13.10;;;;;;;1.34;89.87;101599.09;5051445;28;20044;-68
2021/01/03 05:31:24;;;;;;;24.75;13.25;;;;;;;1.35;89.59;101606.91;5033935;28;20033;-68
2021/01/03 05:33:53;;;;;;;26.08;13.75;;;;;;;1.30;89.44;101602.81;5050547;28;20068;-68
2021/01/03 05:36:32;;;;;;;28.08;12.07;;;;;;;1.29;89.53;101609.00;5050831;28;20425;-68
2021/01/03 05:38:57;;;;;;;25.00;12.88;;;;;;;1.28;89.55;101610.78;5051345;28;20040;-68
2021/01/03 05:41:43;;;;;;;20.02;11.90;;;;;;;1.29;89.74;101607.25;5050038;28;20041;-68
2021/01/03 05:44:28;;;;;;;22.10;11.30;;;;;;;1.26;89.29;101613.53;5050593;28;20060;-68
2021/01/03 05:47:03;;;;;;;21.02;12.63;;;;;;;1.21;89.15;101622.56;5050901;28;20033;-68
2021/01/03 05:49:29;;;;;;;23.20;11.50;;;;;;;1.21;89.10;101623.41;5051182;28;20039;-68
2021/01/03 05:52:26;;;;;;;16.77;9.98;;;;;;;1.22;88.86;101624.28;5050048;28;20044;-68
2021/01/03 05:54:52;;;;;;;20.13;9.68;;;;;;;1.21;88.87;101623.41;5051239;28;20037;-68
2021/01/03 05:57:38;;;;;;;;;;;;;;;1.14;88.54;101619.41;5051248;28;20059;-68
2021/01/03 06:00:22;;;;;;;;;;;;;;;1.13;88.26;101619.50;5050157;28;20345;-68
2021/01/03 06:02:48;;;;;;;15.43;8.48;;;;;;;1.13;88.37;101622.97;5051060;28;19917;-67
2021/01/03 06:05:21;;;;;;;15.45;9.23;;;;;;;1.09;88.13;101620.59;5050035;28;20052;-68
2021/01/03 06:08:10;;;;;;;15.38;9.10;;;;;;;1.08;88.27;101624.13;5050717;28;20961;-67
2021/01/03 06:10:38;;;;;;;13.45;7.70;;;;;;;1.03;88.02;101634.88;5050780;28;20425;-68
2021/01/03 06:13:06;;;;;;;14.98;8.05;;;;;;;1.04;87.99;101631.34;5049930;28;20071;-68
2021/01/03 06:15:43;;;;;;;16.95;8.43;;;;;;;1.09;87.96;101642.47;5049799;28;20044;-68
2021/01/03 06:18:15;;;;;;;14.07;7.45;;;;;;;1.12;87.41;101644.94;5049950;28;20094;-67
2021/01/03 06:20:41;;;;;;;13.80;8.15;;;;;;;1.13;87.48;101644.03;5049871;28;20045;-67
2021/01/03 06:23:29;;;;;;;16.33;8.25;;;;;;;1.10;87.54;101649.44;5054790;28;20106;-67
2021/01/03 06:26:09;;;;;;;13.88;7.13;;;;;;;1.13;87.44;101651.06;5054769;28;20032;-67
2021/01/03 06:28:55;;;;;;;16.50;7.47;;;;;;;1.12;87.17;101651.97;5054766;28;20075;-67
2021/01/03 06:31:30;;;;;;;13.18;7.18;;;;;;;1.09;86.95;101646.88;5054718;28;20057;-67
2021/01/03 06:34:13;;;;;;;14.52;8.27;;;;;;;1.08;87.00;101646.03;5053717;28;20048;-67
2021/01/03 06:37:04;;;;;;;12.52;7.10;;;;;;;1.08;87.17;101646.03;5054432;28;20044;-67
2021/01/03 06:39:38;;;;;;;16.55;6.85;;;;;;;1.06;87.29;101650.53;5053686;28;20419;-68
2021/01/03 06:42:30;;;;;;;12.88;7.60;;;;;;;1.03;86.73;101658.56;5053710;28;20059;-67
2021/01/03 06:45:32;;;;;;;12.20;6.97;;;;;;;1.09;86.74;101662.66;5054624;28;20094;-67
2021/01/03 06:48:24;;;;;;;12.90;7.05;;;;;;;1.07;86.79;101649.59;5054273;28;20044;-67
2021/01/03 06:51:22;;;;;;;13.70;7.53;;;;;;;1.09;86.44;101660.03;5054616;28;20029;-67
2021/01/03 06:54:18;;;;;;;13.82;7.95;;;;;;;1.07;85.86;101660.09;5054404;28;20033;-67
2021/01/03 06:57:21;;;;;;;13.48;6.68;;;;;;;1.04;85.74;101663.75;5053994;28;20044;-67
2021/01/03 07:00:12;;;;;;;16.48;7.10;;;;;;;1.05;86.16;101661.97;5054221;28;20510;-67
2021/01/03 07:03:23;;;;;;;13.20;7.05;;;;;;;1.04;86.18;101668.16;5054069;28;20052;-67
2021/01/03 07:05:55;;;;;;;14.35;7.55;;;;;;;1.04;86.13;101679.53;5051987;28;20080;-67
2021/01/03 07:08:22;;;;;;;11.45;6.63;;;;;;;1.02;86.00;101670.88;5052095;28;20040;-67
2021/01/03 07:10:48;;;;;;;11.88;6.72;;;;;;;1.04;86.24;101661.13;5052996;28;20041;-67
2021/01/03 07:13:26;;;;;;;10.93;6.63;;;;;;;1.03;86.05;101669.06;5069713;28;20037;-67
2021/01/03 07:15:53;;;;;;;13.07;7.07;;;;;;;1.01;86.06;101670.97;5053881;28;20043;-67
2021/01/03 07:18:26;;;;;;;11.93;6.00;;;;;;;1.01;85.73;101671.81;5052784;28;20075;-67
2021/01/03 07:21:18;;;;;;;14.98;7.45;;;;;;;1.05;85.51;101673.34;5052650;28;20041;-67
2021/01/03 07:23:48;;;;;;;12.02;6.85;;;;;;;1.10;85.61;101674.88;5052591;28;20136;-67
2021/01/03 07:26:18;;;;;;;12.02;6.00;;;;;;;1.07;85.67;101675.03;5052215;28;20036;-67
2021/01/03 07:29:17;;;;;;;13.98;6.82;;;;;;;1.07;85.97;101673.25;5053239;28;20132;-67
2021/01/03 07:32:03;;;;;;;15.32;7.75;;;;;;;1.05;85.69;101675.09;5052468;28;20073;-67
2021/01/03 07:34:31;;;;;;;13.68;6.63;;;;;;;1.02;85.21;101673.50;5052957;28;20462;-67
2021/01/03 07:37:13;;;;;;;10.27;6.00;;;;;;;1.04;85.66;101678.69;5053198;28;20126;-67
2021/01/03 07:39:58;;;;;;;14.32;7.32;;;;;;;1.05;86.08;101673.34;5052594;28;20076;-67
2021/01/03 07:42:54;;;;;;;11.88;7.15;;;;;;;0.99;85.43;101676.28;5053364;28;20083;-67
2021/01/03 07:45:39;;;;;;;13.48;7.15;;;;;;;1.05;85.47;101683.00;5053450;28;20041;-67
2021/01/03 07:48:25;;;;;;;;;;;;;;;1.05;85.65;101680.38;5069409;28;20032;-67
2021/01/03 07:50:50;;;;;;;16.08;6.80;;;;;;;1.07;85.84;101675.03;5053169;28;20248;-67
2021/01/03 07:53:25;;;;;;;14.57;7.50;;;;;;;1.04;85.62;101682.16;5052279;28;20075;-67
2021/01/03 07:55:51;;;;;;;15.43;7.55;;;;;;;1.07;85.54;101682.94;5052921;28;20091;-67
2021/01/03 07:58:23;;;;;;;13.63;6.80;;;;;;;1.07;85.75;101680.31;5053314;28;20406;-67
2021/01/03 08:00:55;;;;;;;14.75;7.57;;;;;;;1.07;85.72;101691.66;5053096;28;20037;-67
2021/01/03 08:03:23;;;;;;;17.20;8.30;;;;;;;1.06;86.17;101692.63;5053102;28;20127;-67
2021/01/03 08:05:49;;;;;;;17.40;8.43;;;;;;;1.07;86.22;101682.94;5051961;28;20037;-67
2021/01/03 08:08:24;;;;;;;12.80;7.20;;;;;;;1.08;86.30;101688.13;5053989;28;20047;-67
2021/01/03 08:10:52;;;;;;;13.30;7.22;;;;;;;1.05;85.81;101693.53;5073086;28;20031;-67
2021/01/03 08:13:29;;;;;;;12.48;7.85;;;;;;;1.08;86.25;101687.25;5073050;28;20441;-67
2021/01/03 08:15:58;;;;;;;13.02;7.57;;;;;;;1.11;86.30;101685.34;5071674;28;20093;-67
2021/01/03 08:18:25;;;;;;;15.57;8.02;;;;;;;1.15;86.29;101693.94;5072901;28;20465;-67
2021/01/03 08:20:50;;;;;;;14.52;6.72;;;;;;;1.12;85.98;101684.38;5070364;28;20454;-67
2021/01/03 08:23:27;;;;;;;13.10;7.10;;;;;;;1.19;86.23;101680.50;5072504;28;20056;-67
2021/01/03 08:26:09;;;;;;;12.70;6.68;;;;;;;1.14;85.99;101694.84;5072373;28;20458;-67
2021/01/03 08:28:50;;;;;;;16.92;7.72;;;;;;;1.19;86.12;101691.03;5072437;28;20033;-67
2021/01/03 08:31:15;;;;;;;15.25;7.28;;;;;;;1.16;86.01;101695.63;5072602;28;20455;-67
2021/01/03 08:33:42;;;;;;;12.27;6.83;;;;;;;1.12;85.87;101700.16;5066604;28;20048;-67
2021/01/03 08:36:25;;;;;;;10.43;6.50;;;;;;;1.10;85.70;101701.19;5071182;28;20731;-67
2021/01/03 08:38:52;;;;;;;9.07;5.45;;;;;;;1.09;85.68;101697.69;5072576;28;20040;-67
2021/01/03 08:41:26;;;;;;;12.50;5.78;;;;;;;1.15;85.76;101699.19;5071398;28;20029;-67
2021/01/03 08:43:52;;;;;;;11.45;5.32;;;;;;;1.15;86.14;101705.28;5072422;28;20036;-67
2021/01/03 08:46:27;;;;;;;10.38;5.95;;;;;;;1.18;86.30;101704.28;5071102;28;20041;-67
2021/01/03 08:49:08;;;;;;;10.57;5.97;;;;;;;1.21;86.47;101702.34;5072144;28;20051;-67
2021/01/03 08:51:35;;;;;;;11.52;6.05;;;;;;;1.22;86.56;101695.31;5072230;28;20032;-67
2021/01/03 08:54:04;;;;;;;9.27;4.80;;;;;;;1.32;86.76;101700.94;5071187;28;20040;-67
2021/01/03 08:56:35;;;;;;;8.18;4.65;;;;;;;1.34;86.80;101699.09;5071852;28;20362;-67
2021/01/03 08:59:01;;;;;;;8.52;4.90;;;;;;;1.47;85.95;101700.13;5072034;28;20047;-67
2021/01/03 09:01:30;;;;;;;8.77;4.78;;;;;;;1.64;85.78;101704.53;5069090;28;20037;-67
2021/01/03 09:04:06;;;;;;;7.10;4.57;;;;;;;1.61;85.56;101720.47;5068539;28;20047;-67
2021/01/03 09:06:38;;;;;;;8.48;4.68;;;;;;;1.56;85.65;101715.44;5087653;27;20367;-66
2021/01/03 09:09:11;;;;;;;7.13;4.57;;;;;;;1.49;85.94;101719.31;5087183;28;20044;-66
2021/01/03 09:11:48;;;;;;;8.07;4.15;;;;;;;1.51;85.99;101717.47;5085572;28;20305;-71
2021/01/03 09:14:24;;;;;;;6.55;4.18;;;;;;;1.95;85.59;101721.31;5086956;28;20036;-71
2021/01/03 09:17:12;;;;;;;8.13;4.35;;;;;;;2.33;83.53;101716.56;5085548;28;20064;-71
2021/01/03 09:20:05;;;;;;;8.32;4.10;;;;;;;2.47;82.81;101719.28;5086787;28;20130;-71
2021/01/03 09:22:34;;;;;;;6.32;3.13;;;;;;;2.69;82.14;101724.19;5086691;28;20040;-71
2021/01/03 09:25:04;;;;;;;5.78;3.00;;;;;;;2.64;81.42;101720.94;5088206;28;20036;-71
2021/01/03 09:27:33;;;;;;;8.13;3.78;;;;;;;2.91;79.94;101722.97;5086821;28;20121;-71
2021/01/03 09:30:30;;;;;;;7.10;3.90;;;;;;;3.07;80.37;101722.91;5087253;28;20032;-71
2021/01/03 09:33:24;;;;;;;4.63;3.13;;;;;;;3.38;78.69;101728.06;5069394;28;20139;-73
2021/01/03 09:36:01;;;;;;;5.18;3.00;;;;;;;3.36;77.39;101726.47;5085667;28;20373;-71
2021/01/03 09:38:51;;;;;;;6.32;4.15;;;;;;;3.66;77.76;101721.13;5088153;28;20499;-71
2021/01/03 09:41:40;;;;;;;4.35;2.80;;;;;;;3.99;77.05;101727.91;5088210;28;20043;-71
2021/01/03 09:44:20;;;;;;;7.40;2.78;;;;;;;4.34;74.85;101724.81;5087993;28;20097;-71
2021/01/03 09:46:53;;;;;;;4.90;3.08;;;;;;;4.36;74.57;101729.06;5087780;28;20366;-71
2021/01/03 09:49:23;;;;;;;10.27;3.95;;;;;;;4.59;74.18;101727.59;5087774;28;20401;-71
2021/01/03 09:51:56;;;;;;;4.68;2.72;;;;;;;4.57;74.79;101733.94;5087909;28;20036;-71
2021/01/03 09:54:31;;;;;;;4.40;2.63;;;;;;;4.78;73.45;101724.59;5087812;28;20036;-71
2021/01/03 09:56:56;;;;;;;3.00;2.22;;;;;;;5.08;72.47;101729.63;5087553;28;20432;-71
2021/01/03 09:59:22;;;;;;;3.73;2.30;;;;;;;4.94;72.96;101734.13;5087522;28;20465;-71
2021/01/03 10:01:50;;;;;;;4.70;2.85;;;;;;;4.29;75.01;101730.41;5086459;28;20480;-71
2021/01/03 10:04:18;;;;;;;3.35;2.58;;;;;;;3.96;76.41;101722.81;5086411;28;20051;-71
2021/01/03 10:06:46;;;;;;;4.10;2.55;;;;;;;3.54;77.92;101730.63;5086198;28;20036;-71
2021/01/03 10:09:23;;;;;;;9.75;2.83;;;;;;;3.12;79.89;101728.78;5087418;28;20078;-71
2021/01/03 10:11:50;;;;;;;4.45;2.95;;;;;;;3.15;80.06;101718.88;5087407;28;20036;-71
2021/01/03 10:14:30;;;;;;;7.05;3.30;;;;;;;3.16;80.97;101711.78;5086141;28;20046;-71
2021/01/03 10:17:11;;;;;;;10.52;3.95;;;;;;;3.07;81.37;101717.66;5079640;28;20045;-71
2021/01/03 10:19:36;;;;;;;4.50;2.85;;;;;;;2.75;81.86;101725.63;5073775;28;20374;-71
2021/01/03 10:22:01;;;;;;;5.97;3.60;;;;;;;2.97;81.63;101719.94;5073827;28;20050;-71
2021/01/03 10:24:27;;;;;;;7.53;3.00;;;;;;;2.93;81.88;101708.75;5073614;28;20059;-71
2021/01/03 10:27:04;;;;;;;4.93;2.90;;;;;;;3.01;81.87;101720.63;5072296;28;20052;-71
2021/01/03 10:29:31;;;;;;;4.93;2.83;;;;;;;3.00;81.47;101716.28;5072502;28;20079;-71
2021/01/03 10:31:56;;;;;;;;;;;;;;;3.05;81.90;101720.34;5074112;28;20043;-71
2021/01/03 10:34:23;;;;;;;10.60;4.18;;;;;;;3.07;81.37;101712.38;5072702;28;19924;-71
2021/01/03 10:36:52;;;;;;;6.22;3.22;;;;;;;2.94;80.82;101718.34;5073246;28;20173;-71
2021/01/03 10:39:17;;;;;;;4.97;2.50;;;;;;;3.11;81.23;101716.50;5055825;28;20051;-71
2021/01/03 10:41:42;;;;;;;7.20;3.13;;;;;;;3.24;81.06;101711.34;5073469;28;20369;-71
2021/01/03 10:44:10;;;;;;;6.50;3.13;;;;;;;3.18;81.25;101715.19;5072462;28;20089;-71
2021/01/03 10:46:37;;;;;;;8.15;2.75;;;;;;;3.07;81.48;101717.66;5072249;28;20029;-71
2021/01/03 10:49:04;;;;;;;5.90;2.42;;;;;;;3.25;81.73;101721.81;5073406;28;20051;-71
2021/01/03 10:51:32;;;;;;;6.35;2.92;;;;;;;3.20;81.39;101708.03;5072431;28;20125;-71
2021/01/03 10:53:58;;;;;;;5.40;3.28;;;;;;;3.13;81.54;101718.09;5073264;28;20178;-71
2021/01/03 10:56:23;;;;;;;6.53;2.60;;;;;;;3.04;80.78;101716.00;5072974;28;20456;-71
2021/01/03 10:58:49;;;;;;;6.73;2.37;;;;;;;3.07;81.20;101720.28;5073192;28;20070;-71
2021/01/03 11:01:14;;;;;;;4.47;2.60;;;;;;;3.07;81.02;101717.66;5055595;28;20606;-71
2021/01/03 11:03:40;;;;;;;5.00;2.80;;;;;;;2.97;80.76;101719.94;5073163;28;20182;-71
2021/01/03 11:06:06;;;;;;;5.10;2.65;;;;;;;3.04;81.00;101717.81;5071631;28;20374;-71
2021/01/03 11:08:31;;;;;;;5.67;2.80;;;;;;;3.02;80.81;101710.00;5072884;28;20044;-71
2021/01/03 11:10:56;;;;;;;6.07;3.40;;;;;;;3.04;81.04;101709.88;5071910;28;20044;-71
2021/01/03 11:13:22;;;;;;;3.27;2.63;;;;;;;3.04;80.27;101717.81;5071951;28;20048;-71
2021/01/03 11:15:48;;;;;;;5.90;2.40;;;;;;;2.88;80.74;101713.44;5071690;28;20040;-71
2021/01/03 11:18:13;;;;;;;6.53;2.45;;;;;;;2.94;80.75;101718.34;5072869;28;20672;-71
2021/01/03 11:20:39;;;;;;;4.33;2.07;;;;;;;3.01;80.56;101712.72;5072883;28;20116;-71
2021/01/03 11:23:04;;;;;;;2.90;2.03;;;;;;;3.22;80.44;101706.16;5071759;28;20124;-71
2021/01/03 11:25:29;;;;;;;6.83;2.50;;;;;;;3.19;80.07;101711.63;5072611;28;20024;-71
2021/01/03 11:27:54;;;;;;;4.53;2.17;;;;;;;3.10;80.54;101712.19;5071683;28;20132;-71
2021/01/03 11:30:20;;;;;;;4.03;2.40;;;;;;;3.05;80.35;101690.50;5072465;28;20040;-71
2021/01/03 11:32:46;;;;;;;5.28;2.40;;;;;;;3.14;79.61;101692.59;5071569;28;20029;-71
2021/01/03 11:35:12;;;;;;;7.87;2.50;;;;;;;3.36;78.93;101689.50;5071477;28;20040;-71
2021/01/03 11:37:37;;;;;;;;;;;;;;;3.26;79.23;101694.50;5071495;28;20036;-70
2021/01/03 11:40:03;;;;;;;;;;;;;;;3.36;78.62;101687.69;5072870;28;19919;-70
2021/01/03 11:42:32;;;;;;;4.43;2.33;;;;;;;4.25;76.76;101681.31;5072271;28;19977;-70
2021/01/03 11:44:57;;;;;;;4.65;2.20;;;;;;;4.44;74.87;101680.97;5072328;28;20062;-70
2021/01/03 11:47:23;;;;;;;4.63;2.63;;;;;;;4.55;75.02;101682.91;5071994;28;20033;-71